Barranquilla, Colombia

4:28 AM COT en Octubre 26, 2014 (GMT -0500)
Ernesto Cortissoz | Change Station
CLOSE
Current Station
Aeropuerto
Location: Barranquilla,
Altura: 98 ft
Estaciones meteorológicas cercanas

Alt 98 ft 10.88 °N, 74.78 °W | Updated 28 minutes ago

Partly Cloudy
Parcialmente nublado
75 ° F
Sensación térmica 75 ° F
N
5
Viento Variable Viento desde SO

Hoy
Alta -- | Baja -- ° F
--% Posibilidad de precipitaciones
Ayer
Alta -- | Baja -- ° F
Precip. -- pul
5:49 AM 5:36 PM
Creciente, 7% visible
Presión 29.80 pul
Visibilidad 6.2 Millas
Nubes Baja 1000 ft
Punto de rocío 75 ° F
Humedad 100%
Precipitaciones 0.00 pul
Espesor de la nieve No disponible.
UV 0 de una escala de 12
Polen No disponible.
Calidad del aire No disponible.
Flu Activity No disponible.
METAR SKBQ 260900Z 22004KT 9999 FEW010 24/24 A2980

More Conditions Fewer Conditions

Presión 29.80 pul
Visibilidad 6.2 Millas
Nubes Baja 1000 ft
Punto de rocío 75 ° F
Humedad 100%
Precipitaciones 0.00 pul
Espesor de la nieve No disponible.
UV 0 de una escala de 12
Polen No disponible.
Calidad del aire No disponible.
Flu Activity No disponible.
METAR SKBQ 260900Z 22004KT 9999 FEW010 24/24 A2980

More Conditions Fewer Conditions

10-Day Weather Forecast

Almanac

Astronomía

Oct. 26, 2014 Salida Puesta
Hora real 5:49 AM COT 5:36 PM COT
Crepúsculo civil 5:27 AM COT 5:58 PM COT
Crepúsculo náutico 5:02 AM COT 6:22 PM COT
Crepúsculo astronómico 4:38 AM COT 6:47 PM COT
Luna 8:07 AM COT 8:04 PM COT
Horas de luz 12h 30m
Horas de luz
11h 47m
Tomorrow will be 0m 32s shorter.
Creciente, 7% of the Moon is Illuminated
Hoy
Creciente
Oct 30
Cuarto creciente
Nov 6
Luna llena
Nov 14
Cuarto menguante
Nov 22
Nueva

Extremos de ayer

Máximos del país Bajas del país

Community

WunderPhotos

Upload Photos

1,765,130 ¡fotos cargadas!

Nearby

Calidad del aire

Not available.

Grosos de nieve

Not available.

Actividad de terremotos

Ciudad Distance Mag. Tiempo y dato
No hay informes recientes de la actividad sísmica.
Magnitud mínima muestra es 2,5.

Temperaturas de aguas costeras

Lugar Temperatura
Sin partes meteorológicos de las estaciones

Estaciones meteorológicas cercanas